createdAt,value
2018-05-26T00:01:04.948Z,22.37
2018-05-26T00:03:33.222Z,22.60
2018-05-26T00:06:00.729Z,23.60
2018-05-26T00:08:28.261Z,22.20
2018-05-26T00:10:55.761Z,23.37
2018-05-26T00:13:24.080Z,24.07
2018-05-26T00:15:51.560Z,24.20
2018-05-26T00:18:19.061Z,23.87
2018-05-26T00:20:46.541Z,21.70
2018-05-26T00:23:14.058Z,23.80
2018-05-26T00:25:41.567Z,22.67
2018-05-26T00:28:09.057Z,21.80
2018-05-26T00:30:36.558Z,20.90
2018-05-26T00:33:04.079Z,22.60
2018-05-26T00:35:31.553Z,23.33
2018-05-26T00:37:59.080Z,24.00
2018-05-26T00:40:26.560Z,24.70
2018-05-26T00:42:54.072Z,19.97
2018-05-26T00:45:21.549Z,20.70
2018-05-26T00:47:49.056Z,23.03
2018-05-26T00:50:16.545Z,22.30
2018-05-26T00:52:44.044Z,22.90
2018-05-26T00:55:11.520Z,21.93
2018-05-26T00:57:39.025Z,22.97
2018-05-26T01:00:07.265Z,23.20
2018-05-26T01:02:34.745Z,21.80
2018-05-26T01:05:02.252Z,23.77
2018-05-26T01:07:29.742Z,22.20
2018-05-26T01:09:57.270Z,18.70
2018-05-26T01:12:25.537Z,20.93
2018-05-26T01:14:53.044Z,21.97
2018-05-26T01:17:21.299Z,21.83
2018-05-26T01:19:48.802Z,22.33
2018-05-26T01:22:17.057Z,21.00
2018-05-26T01:24:44.573Z,21.67
2018-05-26T01:27:12.052Z,23.70
2018-05-26T01:29:39.556Z,21.60
2018-05-26T01:32:07.041Z,22.10
2018-05-26T01:34:34.584Z,19.30
2018-05-26T01:37:02.114Z,22.23
2018-05-26T01:39:29.605Z,20.27
2018-05-26T01:41:57.125Z,21.50
2018-05-26T01:44:25.411Z,21.30
2018-05-26T01:46:52.929Z,20.40
2018-05-26T01:49:21.181Z,22.47
2018-05-26T01:51:48.693Z,22.13
2018-05-26T01:54:16.945Z,23.13
2018-05-26T01:56:44.456Z,23.00
2018-05-26T01:59:11.938Z,22.60
2018-05-26T02:01:39.454Z,21.50
2018-05-26T02:04:06.964Z,20.67
2018-05-26T02:06:34.455Z,20.40
2018-05-26T02:09:01.965Z,22.30
2018-05-26T02:11:29.477Z,21.20
2018-05-26T02:13:57.764Z,20.60
2018-05-26T02:16:26.033Z,20.60
2018-05-26T02:18:53.538Z,17.50
2018-05-26T02:21:21.065Z,20.30
2018-05-26T02:23:48.556Z,22.20
2018-05-26T02:26:16.876Z,21.37
2018-05-26T02:28:44.367Z,20.60
2018-05-26T02:31:11.894Z,21.27
2018-05-26T02:33:40.140Z,19.90
2018-05-26T02:36:07.650Z,20.67
2018-05-26T02:38:35.957Z,19.03
2018-05-26T02:41:03.441Z,19.20
2018-05-26T02:43:30.920Z,18.43
2018-05-26T02:45:58.426Z,18.23
2018-05-26T02:48:25.913Z,20.00
2018-05-26T02:50:53.448Z,20.57
2018-05-26T02:53:20.943Z,21.63
2018-05-26T02:55:48.456Z,22.17
2018-05-26T02:58:15.968Z,22.47
2018-05-26T03:00:43.488Z,22.70
2018-05-26T03:03:11.733Z,21.27
2018-05-26T03:05:44.883Z,19.80
2018-05-26T03:08:17.958Z,21.20
2018-05-26T03:10:51.786Z,19.63
2018-05-26T03:13:24.985Z,20.60
2018-05-26T03:18:55.557Z,18.33
2018-05-26T03:21:23.057Z,18.87
2018-05-26T03:23:51.318Z,20.60
2018-05-26T03:26:19.626Z,18.57
2018-05-26T03:28:47.888Z,15.67
2018-05-26T03:31:15.428Z,17.37
2018-05-26T03:33:42.920Z,19.23
2018-05-26T03:36:10.416Z,20.60
2018-05-26T03:38:37.925Z,20.10
2018-05-26T03:41:05.419Z,21.80
2018-05-26T03:43:32.932Z,20.17
2018-05-26T03:46:01.213Z,20.50
2018-05-26T03:48:28.698Z,20.07
2018-05-26T03:50:56.977Z,21.27
2018-05-26T03:53:24.462Z,20.37
2018-05-26T03:56:04.572Z,21.30
2018-05-26T03:58:44.048Z,17.27
2018-05-26T04:01:11.545Z,16.80
2018-05-26T04:03:39.872Z,18.90
2018-05-26T04:06:07.411Z,20.13
2018-05-26T04:08:35.657Z,19.53
2018-05-26T04:11:03.148Z,18.70
2018-05-26T04:13:30.657Z,18.53
2018-05-26T04:15:58.159Z,19.30
2018-05-26T04:18:25.672Z,19.63
2018-05-26T04:20:53.966Z,19.87
2018-05-26T04:23:21.517Z,17.73
2018-05-26T04:25:50.124Z,19.93
2018-05-26T04:28:17.699Z,18.50
2018-05-26T04:30:45.233Z,20.00
2018-05-26T04:33:12.709Z,20.57
2018-05-26T04:35:40.218Z,21.70
2018-05-26T04:38:07.699Z,20.40
2018-05-26T04:40:35.996Z,19.23
2018-05-26T04:43:04.236Z,19.93
2018-05-26T04:45:31.745Z,19.93
2018-05-26T04:47:59.989Z,20.70
2018-05-26T04:50:27.532Z,20.17
2018-05-26T04:52:55.046Z,20.67
2018-05-26T04:55:22.529Z,21.70
2018-05-26T04:57:50.053Z,19.50
2018-05-26T05:00:17.541Z,19.67
2018-05-26T05:02:45.100Z,20.40
2018-05-26T05:05:13.296Z,19.10
2018-05-26T05:07:40.804Z,20.90
2018-05-26T05:10:08.276Z,21.23
2018-05-26T05:12:35.786Z,20.90
2018-05-26T05:15:03.260Z,20.80
2018-05-26T05:17:30.826Z,20.47
2018-05-26T05:19:58.300Z,20.07
2018-05-26T05:22:25.801Z,21.73
2018-05-26T05:24:54.080Z,20.73
2018-05-26T05:27:21.605Z,21.73
2018-05-26T05:29:49.852Z,19.80
2018-05-26T05:32:17.332Z,22.13
2018-05-26T05:34:44.831Z,21.23
2018-05-26T05:37:13.088Z,20.50
2018-05-26T05:39:40.605Z,22.90
2018-05-26T05:42:08.089Z,23.27
2018-05-26T05:44:35.606Z,21.83
2018-05-26T05:47:03.149Z,23.17
2018-05-26T05:49:30.670Z,22.27
2018-05-26T05:51:58.936Z,25.17
2018-05-26T05:54:26.477Z,23.57
2018-05-26T05:56:53.961Z,26.83
2018-05-26T05:59:21.439Z,26.63
2018-05-26T06:01:48.952Z,25.00
2018-05-26T06:04:17.216Z,26.50
2018-05-26T06:06:44.729Z,23.90
2018-05-26T06:09:12.460Z,25.27
2018-05-26T06:11:39.949Z,24.60
2018-05-26T06:14:08.240Z,26.00
2018-05-26T06:16:35.737Z,23.30
2018-05-26T06:19:03.264Z,22.17
2018-05-26T06:21:30.777Z,22.07
2018-05-26T06:23:58.291Z,21.00
2018-05-26T06:26:25.810Z,19.17
2018-05-26T06:28:54.086Z,19.67
2018-05-26T06:31:22.364Z,18.77
2018-05-26T06:33:49.889Z,19.90
2018-05-26T06:36:17.381Z,18.20
2018-05-26T06:38:44.903Z,18.27
2018-05-26T06:41:13.176Z,18.20
2018-05-26T06:43:40.668Z,15.63
2018-05-26T06:46:08.209Z,15.63
2018-05-26T06:48:35.731Z,13.60
2018-05-26T06:51:03.248Z,13.03
2018-05-26T06:53:30.742Z,12.33
2018-05-26T06:55:58.358Z,14.87
2018-05-26T06:58:25.840Z,13.40
2018-05-26T07:00:53.347Z,14.27
2018-05-26T07:03:21.687Z,15.03
2018-05-26T07:05:49.176Z,12.57
2018-05-26T07:08:16.684Z,12.37
2018-05-26T07:10:45.005Z,13.00
2018-05-26T07:13:12.486Z,12.87
2018-05-26T07:15:40.003Z,13.57
2018-05-26T07:18:07.489Z,13.27
2018-05-26T07:20:35.774Z,12.03
2018-05-26T07:23:04.244Z,13.97
2018-05-26T07:25:31.769Z,12.57
2018-05-26T07:27:59.309Z,12.20
2018-05-26T07:30:26.873Z,13.03
2018-05-26T07:32:54.392Z,12.70
2018-05-26T07:35:21.908Z,12.30
2018-05-26T07:37:49.426Z,13.93
2018-05-26T07:40:16.906Z,12.37
2018-05-26T07:42:44.413Z,13.70
2018-05-26T07:45:11.900Z,13.57
2018-05-26T07:47:39.386Z,12.83
2018-05-26T07:50:07.680Z,12.70
2018-05-26T07:52:35.935Z,13.00
2018-05-26T07:55:03.447Z,14.23
2018-05-26T07:57:30.964Z,12.67
2018-05-26T07:59:58.510Z,12.80
2018-05-26T08:02:26.002Z,13.07
2018-05-26T08:04:53.481Z,12.90
2018-05-26T08:07:21.017Z,12.07
2018-05-26T08:09:48.497Z,11.57
2018-05-26T08:12:15.978Z,11.83
2018-05-26T08:14:43.489Z,11.87
2018-05-26T08:17:11.032Z,11.90
2018-05-26T08:19:38.532Z,11.57
2018-05-26T08:22:06.016Z,10.87
2018-05-26T08:24:34.292Z,11.47
2018-05-26T08:27:02.572Z,9.70
2018-05-26T08:29:30.052Z,11.23
2018-05-26T08:31:57.573Z,10.67
2018-05-26T08:34:25.054Z,11.90
2018-05-26T08:36:52.536Z,12.07
2018-05-26T08:39:20.049Z,11.47
2018-05-26T08:41:47.545Z,12.07
2018-05-26T08:44:15.068Z,12.73
2018-05-26T08:46:42.597Z,12.00
2018-05-26T08:49:10.121Z,12.17
2018-05-26T08:51:38.366Z,9.63
2018-05-26T08:54:05.884Z,11.57
2018-05-26T08:56:34.140Z,10.80
2018-05-26T08:59:01.659Z,9.83
2018-05-26T09:01:29.934Z,11.27
2018-05-26T09:03:57.472Z,10.63
2018-05-26T09:06:25.026Z,9.93
2018-05-26T09:08:53.328Z,10.17
2018-05-26T09:11:20.853Z,9.83
2018-05-26T09:13:48.367Z,9.47
2018-05-26T09:16:15.845Z,10.60
2018-05-26T09:18:43.377Z,9.60
2018-05-26T09:21:11.280Z,9.67
2018-05-26T09:23:38.796Z,8.93
2018-05-26T09:26:06.338Z,9.40
2018-05-26T09:28:33.865Z,10.27
2018-05-26T09:31:01.345Z,9.30
2018-05-26T09:33:28.874Z,9.10
2018-05-26T09:35:56.369Z,11.00
2018-05-26T09:38:24.645Z,10.03
2018-05-26T09:40:52.901Z,8.80
2018-05-26T09:43:20.410Z,9.40
2018-05-26T09:45:48.689Z,8.70
2018-05-26T09:48:16.170Z,6.73
2018-05-26T09:50:44.449Z,7.20
2018-05-26T09:53:11.921Z,7.27
2018-05-26T09:55:40.172Z,7.77
2018-05-26T09:58:07.676Z,7.50
2018-05-26T10:00:35.148Z,7.43
2018-05-26T10:03:02.659Z,6.97
2018-05-26T10:05:30.169Z,7.40
2018-05-26T10:07:57.636Z,7.27
2018-05-26T10:10:25.141Z,6.03
2018-05-26T10:12:53.380Z,7.37
2018-05-26T10:15:20.888Z,7.30
2018-05-26T10:17:48.445Z,5.87
2018-05-26T10:20:15.925Z,6.10
2018-05-26T10:22:43.450Z,7.03
2018-05-26T10:25:10.955Z,7.57
2018-05-26T10:27:38.445Z,7.20
2018-05-26T10:30:06.000Z,7.77
2018-05-26T10:32:33.458Z,6.50
2018-05-26T10:35:00.962Z,7.03
2018-05-26T10:37:29.242Z,6.47
2018-05-26T10:39:56.746Z,6.77
2018-05-26T10:42:25.009Z,7.07
2018-05-26T10:44:52.518Z,7.03
2018-05-26T10:47:20.036Z,6.40
2018-05-26T10:49:48.316Z,6.60
2018-05-26T10:52:18.593Z,6.37
2018-05-26T10:54:46.923Z,7.50
2018-05-26T10:57:14.425Z,6.63
2018-05-26T10:59:41.927Z,6.77
2018-05-26T11:02:09.459Z,6.27
2018-05-26T11:04:37.004Z,6.67
2018-05-26T11:07:04.524Z,5.87
2018-05-26T11:09:32.038Z,5.90
2018-05-26T11:11:59.575Z,6.60
2018-05-26T11:14:27.107Z,5.70
2018-05-26T11:16:55.224Z,6.10
2018-05-26T11:19:23.509Z,6.60
2018-05-26T11:21:51.571Z,6.03
2018-05-26T11:24:20.963Z,6.37
2018-05-26T11:26:48.714Z,6.43
2018-05-26T11:29:16.185Z,6.87
2018-05-26T11:31:43.776Z,7.60
2018-05-26T11:34:11.269Z,7.50
2018-05-26T11:36:40.421Z,7.00
2018-05-26T11:39:09.913Z,7.27
2018-05-26T11:41:37.498Z,6.93
2018-05-26T11:44:05.097Z,6.90
2018-05-26T11:46:32.756Z,6.60
2018-05-26T11:49:00.295Z,6.70
2018-05-26T11:51:28.566Z,5.93
2018-05-26T11:53:56.402Z,5.83
2018-05-26T11:56:23.917Z,6.40
2018-05-26T11:58:51.430Z,7.07
2018-05-26T12:01:18.973Z,7.17
2018-05-26T12:03:46.460Z,6.63
2018-05-26T12:06:13.985Z,6.70
2018-05-26T12:08:42.256Z,6.40
2018-05-26T12:11:09.827Z,6.37
2018-05-26T12:13:38.126Z,6.60
2018-05-26T12:16:06.410Z,7.03
2018-05-26T12:18:33.978Z,5.53
2018-05-26T12:21:02.234Z,6.33
2018-05-26T12:23:29.773Z,6.20
2018-05-26T12:25:57.328Z,7.03
2018-05-26T12:28:24.837Z,6.30
2018-05-26T12:30:52.355Z,5.87
2018-05-26T12:33:20.656Z,5.57
2018-05-26T12:35:48.933Z,5.20
2018-05-26T12:38:17.630Z,6.17
2018-05-26T12:40:46.017Z,6.47
2018-05-26T12:43:13.566Z,6.50
2018-05-26T12:45:41.166Z,6.13
2018-05-26T12:48:09.449Z,5.50
2018-05-26T12:50:36.948Z,6.20
2018-05-26T12:53:04.483Z,5.60
2018-05-26T12:55:31.984Z,6.33
2018-05-26T12:58:00.989Z,4.80
2018-05-26T13:00:29.275Z,6.30
2018-05-26T13:02:57.568Z,5.73
2018-05-26T13:05:25.094Z,5.77
2018-05-26T13:07:52.613Z,6.37
2018-05-26T13:10:20.856Z,6.17
2018-05-26T13:12:48.369Z,6.23
2018-05-26T13:15:15.851Z,6.00
2018-05-26T13:17:43.349Z,6.10
2018-05-26T13:20:10.852Z,6.20
2018-05-26T13:22:38.348Z,5.63
2018-05-26T13:25:06.585Z,6.13
2018-05-26T13:27:34.095Z,6.90
2018-05-26T13:30:01.600Z,4.80
2018-05-26T13:32:29.113Z,5.10
2018-05-26T13:34:56.593Z,6.17
2018-05-26T13:37:24.081Z,6.07
2018-05-26T13:39:51.661Z,5.07
2018-05-26T13:42:19.921Z,5.90
2018-05-26T13:44:47.496Z,5.37
2018-05-26T13:47:15.005Z,5.60
2018-05-26T13:49:42.485Z,5.47
2018-05-26T13:52:10.121Z,5.47
2018-05-26T13:54:38.334Z,5.60
2018-05-26T13:57:05.759Z,5.23
2018-05-26T13:59:33.288Z,5.70
2018-05-26T14:02:00.847Z,4.90
2018-05-26T14:04:29.096Z,5.33
2018-05-26T14:06:56.602Z,5.43
2018-05-26T14:09:24.866Z,5.03
2018-05-26T14:11:52.344Z,5.77
2018-05-26T14:14:19.852Z,4.90
2018-05-26T14:16:47.373Z,5.47
2018-05-26T14:19:14.875Z,5.33
2018-05-26T14:21:43.144Z,5.43
2018-05-26T14:24:10.620Z,5.53
2018-05-26T14:26:38.128Z,4.50
2018-05-26T14:29:05.608Z,5.70
2018-05-26T14:31:33.114Z,5.10
2018-05-26T14:34:00.609Z,5.07
2018-05-26T14:36:28.906Z,5.10
2018-05-26T14:38:56.415Z,5.70
2018-05-26T14:41:23.901Z,4.90
2018-05-26T14:43:51.420Z,5.33
2018-05-26T14:46:19.660Z,4.60
2018-05-26T14:48:47.192Z,5.40
2018-05-26T14:51:14.687Z,4.93
2018-05-26T14:53:42.204Z,4.80
2018-05-26T14:56:10.473Z,5.60
2018-05-26T14:58:37.961Z,5.30
2018-05-26T15:01:05.468Z,4.93
2018-05-26T15:03:32.959Z,5.10
2018-05-26T15:06:00.529Z,5.20
2018-05-26T15:08:28.004Z,4.80
2018-05-26T15:10:55.524Z,5.23
2018-05-26T15:13:23.031Z,5.00
2018-05-26T15:15:50.540Z,4.80
2018-05-26T15:18:18.040Z,5.13
2018-05-26T15:20:46.296Z,5.70
2018-05-26T15:23:13.814Z,4.73
2018-05-26T15:25:42.045Z,5.60
2018-05-26T15:28:09.547Z,5.03
2018-05-26T15:30:37.053Z,5.30
2018-05-26T15:33:04.532Z,4.90
2018-05-26T15:35:32.053Z,4.43
2018-05-26T15:37:59.567Z,4.73
2018-05-26T15:40:27.085Z,4.97
2018-05-26T15:42:54.604Z,4.97
2018-05-26T15:45:22.108Z,4.90
2018-05-26T15:47:49.624Z,5.30
2018-05-26T15:50:17.881Z,5.83
2018-05-26T15:52:45.393Z,5.30
2018-05-26T15:55:13.677Z,5.50
2018-05-26T15:57:41.952Z,4.60
2018-05-26T16:00:09.472Z,5.70
2018-05-26T16:02:36.955Z,5.20
2018-05-26T16:05:04.461Z,4.87
2018-05-26T16:07:31.969Z,5.63
2018-05-26T16:09:59.478Z,6.07
2018-05-26T16:12:26.959Z,5.60
2018-05-26T16:14:55.473Z,4.70
2018-05-26T16:17:22.945Z,5.30
2018-05-26T16:19:50.452Z,5.53
2018-05-26T16:22:17.949Z,5.30
2018-05-26T16:24:45.465Z,4.77
2018-05-26T16:27:13.732Z,4.83
2018-05-26T16:29:41.200Z,5.17
2018-05-26T16:32:08.699Z,5.17
2018-05-26T16:34:36.940Z,5.07
2018-05-26T16:37:04.437Z,4.87
2018-05-26T16:39:31.933Z,4.90
2018-05-26T16:42:00.175Z,4.33
2018-05-26T16:44:27.677Z,4.43
2018-05-26T16:46:55.169Z,5.43
2018-05-26T16:49:23.448Z,5.50
2018-05-26T16:51:51.721Z,4.83
2018-05-26T16:54:19.201Z,5.03
2018-05-26T16:56:47.470Z,4.80
2018-05-26T16:59:14.981Z,4.63
2018-05-26T17:01:42.485Z,5.43
2018-05-26T17:04:09.966Z,4.90
2018-05-26T17:06:37.469Z,4.53
2018-05-26T17:09:05.756Z,5.07
2018-05-26T17:11:33.228Z,5.60
2018-05-26T17:14:00.733Z,5.23
2018-05-26T17:16:28.227Z,5.17
2018-05-26T17:18:55.718Z,4.87
2018-05-26T17:21:23.188Z,5.23
2018-05-26T17:23:50.694Z,5.60
2018-05-26T17:26:18.943Z,4.67
2018-05-26T17:28:46.484Z,4.90
2018-05-26T17:31:13.954Z,5.17
2018-05-26T17:33:41.482Z,5.30
2018-05-26T17:36:09.012Z,5.90
2018-05-26T17:38:36.484Z,5.00
2018-05-26T17:41:03.984Z,5.70
2018-05-26T17:43:31.517Z,5.00
2018-05-26T17:45:59.038Z,5.37
2018-05-26T17:48:27.276Z,5.60
2018-05-26T17:50:55.276Z,5.10
2018-05-26T17:53:22.903Z,5.47
2018-05-26T17:55:51.200Z,5.40
2018-05-26T17:58:18.695Z,5.50
2018-05-26T18:00:46.197Z,5.20
2018-05-26T18:03:13.696Z,5.70
2018-05-26T18:05:41.964Z,5.03
2018-05-26T18:08:09.471Z,5.63
2018-05-26T18:10:36.985Z,6.10
2018-05-26T18:13:04.467Z,5.67
2018-05-26T18:15:31.950Z,5.10
2018-05-26T18:18:00.414Z,5.30
2018-05-26T18:20:27.910Z,5.93
2018-05-26T18:22:55.443Z,5.70
2018-05-26T18:25:23.040Z,5.50
2018-05-26T18:27:50.548Z,6.43
2018-05-26T18:30:18.818Z,6.40
2018-05-26T18:32:46.335Z,5.37
2018-05-26T18:35:13.857Z,6.60
2018-05-26T18:37:41.357Z,5.90
2018-05-26T18:40:08.883Z,5.53
2018-05-26T18:42:36.381Z,6.00
2018-05-26T18:45:04.632Z,5.60
2018-05-26T18:47:33.654Z,5.40
2018-05-26T18:50:02.679Z,5.90
2018-05-26T18:52:30.476Z,5.90
2018-05-26T18:54:57.981Z,6.20
2018-05-26T18:57:25.492Z,7.10
2018-05-26T18:59:52.970Z,5.80
2018-05-26T19:02:20.578Z,5.60
2018-05-26T19:04:48.069Z,5.87
2018-05-26T19:07:15.578Z,5.90
2018-05-26T19:09:43.092Z,6.17
2018-05-26T19:12:10.608Z,5.87
2018-05-26T19:14:38.119Z,6.60
2018-05-26T19:17:05.867Z,5.70
2018-05-26T19:19:33.833Z,6.33
2018-05-26T19:22:01.555Z,5.70
2018-05-26T19:24:29.742Z,6.10
2018-05-26T19:26:57.578Z,6.00
2018-05-26T19:29:25.854Z,5.60
2018-05-26T19:31:53.373Z,6.23
2018-05-26T19:34:21.682Z,12.63
2018-05-26T19:36:49.281Z,12.17
2018-05-26T19:39:16.845Z,13.30
2018-05-26T19:41:44.340Z,9.00
2018-05-26T19:44:11.852Z,8.80
2018-05-26T19:46:40.100Z,6.30
2018-05-26T19:49:07.605Z,6.40
2018-05-26T19:51:35.848Z,6.83
2018-05-26T19:54:03.317Z,7.73
2018-05-26T19:56:30.830Z,7.13
2018-05-26T19:58:59.083Z,9.13
2018-05-26T20:01:26.596Z,9.83
2018-05-26T20:03:54.860Z,9.80
2018-05-26T20:06:22.825Z,8.77
2018-05-26T20:08:50.381Z,8.80
2018-05-26T20:11:17.881Z,7.20
2018-05-26T20:13:45.357Z,7.70
2018-05-26T20:16:12.882Z,7.87
2018-05-26T20:18:40.363Z,7.07
2018-05-26T20:21:07.848Z,7.03
2018-05-26T20:23:35.371Z,6.93
2018-05-26T20:26:03.617Z,7.97
2018-05-26T20:28:31.142Z,7.63
2018-05-26T20:30:58.615Z,7.80
2018-05-26T20:33:26.124Z,9.67
2018-05-26T20:35:54.386Z,9.27
2018-05-26T20:38:21.948Z,8.43
2018-05-26T20:40:49.504Z,8.37
2018-05-26T20:43:17.773Z,8.00
2018-05-26T20:45:45.253Z,6.90
2018-05-26T20:48:13.612Z,8.40
2018-05-26T20:50:41.088Z,7.90
2018-05-26T20:53:08.568Z,8.43
2018-05-26T20:55:36.082Z,7.30
2018-05-26T20:58:03.565Z,7.83
2018-05-26T21:00:31.155Z,8.60
2018-05-26T21:02:58.654Z,7.73
2018-05-26T21:05:26.340Z,8.30
2018-05-26T21:07:53.827Z,7.93
2018-05-26T21:10:22.105Z,9.70
2018-05-26T21:12:49.608Z,9.77
2018-05-26T21:15:17.128Z,8.73
2018-05-26T21:17:44.654Z,9.10
2018-05-26T21:20:12.176Z,9.60
2018-05-26T21:22:39.661Z,9.27
2018-05-26T21:25:07.941Z,10.30
2018-05-26T21:27:35.498Z,11.00
2018-05-26T21:30:03.027Z,11.80
2018-05-26T21:32:30.555Z,12.43
2018-05-26T21:34:58.049Z,15.57
2018-05-26T21:37:26.337Z,9.93
2018-05-26T21:39:54.592Z,11.20
2018-05-26T21:42:22.101Z,9.50
2018-05-26T21:44:50.404Z,8.60
2018-05-26T21:47:17.892Z,9.30
2018-05-26T21:49:45.406Z,8.70
2018-05-26T21:52:12.893Z,9.10
2018-05-26T21:54:41.201Z,10.53
2018-05-26T21:57:08.706Z,8.53
2018-05-26T21:59:36.251Z,8.97
2018-05-26T22:02:03.741Z,10.43
2018-05-26T22:04:31.260Z,8.80
2018-05-26T22:06:58.770Z,10.27
2018-05-26T22:09:26.281Z,9.30
2018-05-26T22:11:53.757Z,9.90
2018-05-26T22:14:21.276Z,10.80
2018-05-26T22:16:49.542Z,9.90
2018-05-26T22:19:17.789Z,10.90
2018-05-26T22:21:45.297Z,13.57
2018-05-26T22:24:12.783Z,18.83
2018-05-26T22:26:41.053Z,15.80
2018-05-26T22:29:08.537Z,15.60
2018-05-26T22:31:36.833Z,15.57
2018-05-26T22:34:05.105Z,16.60
2018-05-26T22:36:32.587Z,16.17
2018-05-26T22:39:00.849Z,15.37
2018-05-26T22:41:28.374Z,14.93
2018-05-26T22:43:56.637Z,13.77
2018-05-26T22:46:24.200Z,14.90
2018-05-26T22:48:51.760Z,14.13
2018-05-26T22:51:20.121Z,14.03
2018-05-26T22:53:47.673Z,10.53
2018-05-26T22:56:16.009Z,9.60
2018-05-26T22:58:43.527Z,11.47
2018-05-26T23:01:11.004Z,12.50
2018-05-26T23:03:38.571Z,14.20
2018-05-26T23:06:06.049Z,16.80
2018-05-26T23:08:33.541Z,17.17
2018-05-26T23:11:01.077Z,15.30
2018-05-26T23:13:28.563Z,13.40
2018-05-26T23:15:56.049Z,13.77
2018-05-26T23:18:23.595Z,14.80
2018-05-26T23:20:51.121Z,12.33
2018-05-26T23:23:19.420Z,10.83
2018-05-26T23:25:47.723Z,12.70
2018-05-26T23:28:15.213Z,10.60
2018-05-26T23:30:42.742Z,12.43
2018-05-26T23:33:11.018Z,13.20
2018-05-26T23:35:39.313Z,13.50
2018-05-26T23:38:06.807Z,13.40
2018-05-26T23:40:35.186Z,13.07
2018-05-26T23:43:03.453Z,12.50
2018-05-26T23:45:30.953Z,12.37
2018-05-26T23:47:59.260Z,12.40
2018-05-26T23:50:26.745Z,11.93
2018-05-26T23:52:54.284Z,11.97
2018-05-26T23:55:21.775Z,12.13
2018-05-26T23:57:49.288Z,12.07
